createdAt,value
2018-09-05T00:01:32.261Z,15.94
2018-09-05T00:04:02.010Z,15.96
2018-09-05T00:06:31.946Z,15.92
2018-09-05T00:09:02.142Z,15.84
2018-09-05T00:11:31.932Z,15.82
2018-09-05T00:14:01.664Z,15.82
2018-09-05T00:16:31.421Z,15.80
2018-09-05T00:19:01.229Z,15.79
2018-09-05T00:21:31.142Z,15.78
2018-09-05T00:24:01.071Z,15.72
2018-09-05T00:26:30.797Z,15.60
2018-09-05T00:29:00.414Z,15.62
2018-09-05T00:31:30.211Z,15.72
2018-09-05T00:34:00.088Z,15.68
2018-09-05T00:36:30.029Z,15.63
2018-09-05T00:38:59.927Z,15.65
2018-09-05T00:41:30.651Z,15.54
2018-09-05T00:44:00.393Z,15.60
2018-09-05T00:46:30.468Z,15.61
2018-09-05T00:49:00.001Z,15.63
2018-09-05T00:51:29.675Z,15.69
2018-09-05T00:53:59.434Z,15.65
2018-09-05T00:56:29.273Z,15.60
2018-09-05T00:58:58.946Z,15.53
2018-09-05T01:01:29.714Z,15.58
2018-09-05T01:03:59.654Z,15.57
2018-09-05T01:06:29.842Z,15.57
2018-09-05T01:08:59.729Z,15.56
2018-09-05T01:11:30.490Z,15.64
2018-09-05T01:14:00.253Z,15.62
2018-09-05T01:16:30.173Z,15.55
2018-09-05T01:18:59.872Z,15.57
2018-09-05T01:21:29.781Z,15.52
2018-09-05T01:23:59.752Z,15.54
2018-09-05T01:26:29.587Z,15.56
2018-09-05T01:28:59.383Z,15.56
2018-09-05T01:31:29.339Z,15.59
2018-09-05T01:33:59.223Z,15.59
2018-09-05T01:36:29.173Z,15.49
2018-09-05T01:38:58.813Z,15.45
2018-09-05T01:41:28.727Z,15.48
2018-09-05T01:43:58.465Z,15.49
2018-09-05T01:46:28.277Z,15.60
2018-09-05T01:48:58.008Z,15.64
2018-09-05T01:51:27.839Z,15.66
2018-09-05T01:53:57.389Z,15.65
2018-09-05T01:56:27.056Z,15.65
2018-09-05T01:58:56.749Z,15.63
2018-09-05T02:01:26.480Z,15.62
2018-09-05T02:03:56.259Z,15.59
2018-09-05T02:06:26.034Z,15.58
2018-09-05T02:08:55.528Z,15.59
2018-09-05T02:11:25.529Z,15.59
2018-09-05T02:13:55.136Z,15.58
2018-09-05T02:16:25.062Z,15.59
2018-09-05T02:18:54.487Z,15.56
2018-09-05T02:21:24.341Z,15.56
2018-09-05T02:23:53.795Z,15.56
2018-09-05T02:26:23.432Z,15.55
2018-09-05T02:28:53.477Z,15.55
2018-09-05T02:31:22.971Z,15.57
2018-09-05T02:33:52.743Z,15.55
2018-09-05T02:36:22.335Z,15.57
2018-09-05T02:38:52.892Z,15.52
2018-09-05T02:41:22.488Z,15.52
2018-09-05T02:43:57.005Z,15.52
2018-09-05T02:46:26.627Z,15.53
2018-09-05T02:48:56.415Z,15.53
2018-09-05T02:51:26.138Z,15.52
2018-09-05T02:53:56.038Z,15.54
2018-09-05T02:56:25.917Z,15.57
2018-09-05T02:58:55.874Z,15.60
2018-09-05T03:01:25.836Z,15.58
2018-09-05T03:03:55.610Z,15.57
2018-09-05T03:06:25.557Z,15.57
2018-09-05T03:08:55.177Z,15.52
2018-09-05T03:11:24.893Z,15.49
2018-09-05T03:13:54.320Z,15.42
2018-09-05T03:16:24.067Z,15.49
2018-09-05T03:18:53.730Z,15.52
2018-09-05T03:21:23.595Z,15.47
2018-09-05T03:23:53.386Z,15.35
2018-09-05T03:26:24.349Z,15.28
2018-09-05T03:28:53.916Z,15.35
2018-09-05T03:31:25.196Z,15.29
2018-09-05T03:33:54.759Z,15.30
2018-09-05T03:36:25.733Z,15.30
2018-09-05T03:38:55.431Z,15.31
2018-09-05T03:41:25.207Z,15.29
2018-09-05T03:43:54.933Z,15.21
2018-09-05T03:46:24.435Z,15.22
2018-09-05T03:48:54.324Z,15.30
2018-09-05T03:51:23.919Z,15.23
2018-09-05T03:53:54.528Z,15.29
2018-09-05T03:56:24.333Z,15.38
2018-09-05T03:58:54.551Z,15.37
2018-09-05T04:01:24.255Z,15.33
2018-09-05T04:03:54.169Z,15.28
2018-09-05T04:06:23.838Z,15.27
2018-09-05T04:08:54.482Z,15.32
2018-09-05T04:11:24.270Z,15.24
2018-09-05T04:13:54.091Z,15.30
2018-09-05T04:16:23.840Z,15.28
2018-09-05T04:18:53.901Z,15.28
2018-09-05T04:21:23.635Z,15.26
2018-09-05T04:23:53.470Z,15.25
2018-09-05T04:26:23.421Z,15.25
2018-09-05T04:28:53.191Z,15.34
2018-09-05T04:31:22.999Z,15.28
2018-09-05T04:33:53.034Z,15.20
2018-09-05T04:36:25.117Z,15.26
2018-09-05T04:38:59.357Z,15.26
2018-09-05T04:41:33.710Z,15.30
2018-09-05T04:44:20.944Z,15.33
2018-09-05T04:47:03.185Z,15.31
2018-09-05T04:49:33.090Z,15.29
2018-09-05T04:52:03.310Z,15.27
2018-09-05T04:54:33.401Z,15.28
2018-09-05T04:57:06.121Z,15.34
2018-09-05T04:59:36.455Z,15.33
2018-09-05T05:02:06.635Z,15.36
2018-09-05T05:04:37.083Z,15.36
2018-09-05T05:07:07.175Z,15.40
2018-09-05T05:09:37.062Z,15.41
2018-09-05T05:12:06.876Z,15.44
2018-09-05T05:14:36.598Z,15.50
2018-09-05T05:17:06.494Z,15.54
2018-09-05T05:19:36.138Z,15.53
2018-09-05T05:22:05.926Z,15.64
2018-09-05T05:24:35.455Z,15.62
2018-09-05T05:27:05.247Z,15.64
2018-09-05T05:29:34.807Z,15.73
2018-09-05T05:32:04.487Z,15.57
2018-09-05T05:34:33.978Z,15.57
2018-09-05T05:37:03.794Z,15.73
2018-09-05T05:39:33.353Z,15.72
2018-09-05T05:42:04.257Z,15.79
2018-09-05T05:44:34.049Z,15.77
2018-09-05T05:47:05.062Z,15.76
2018-09-05T05:49:34.832Z,15.86
2018-09-05T05:52:04.549Z,15.93
2018-09-05T05:54:34.170Z,15.96
2018-09-05T05:57:03.812Z,16.00
2018-09-05T05:59:33.525Z,16.07
2018-09-05T06:02:04.038Z,16.10
2018-09-05T06:04:33.785Z,16.09
2018-09-05T06:07:03.544Z,16.22
2018-09-05T06:09:33.320Z,16.26
2018-09-05T06:12:03.045Z,16.37
2018-09-05T06:14:35.601Z,16.55
2018-09-05T06:17:05.362Z,16.65
2018-09-05T06:19:35.033Z,16.80
2018-09-05T06:22:04.793Z,17.00
2018-09-05T06:24:35.265Z,16.97
2018-09-05T06:27:05.103Z,17.04
2018-09-05T06:29:34.950Z,17.27
2018-09-05T06:32:04.609Z,17.36
2018-09-05T06:34:34.157Z,17.49
2018-09-05T06:37:03.636Z,17.68
2018-09-05T06:39:33.379Z,17.90
2018-09-05T06:42:03.080Z,18.04
2018-09-05T06:44:32.879Z,18.22
2018-09-05T06:47:02.813Z,18.32
2018-09-05T06:49:32.608Z,18.39
2018-09-05T06:52:02.300Z,18.34
2018-09-05T06:54:32.317Z,18.44
2018-09-05T06:57:01.895Z,18.47
2018-09-05T06:59:31.357Z,18.46
2018-09-05T07:02:01.024Z,18.44
2018-09-05T07:04:30.789Z,18.44
2018-09-05T07:07:00.279Z,18.51
2018-09-05T07:09:29.881Z,18.67
2018-09-05T07:11:59.467Z,18.83
2018-09-05T07:14:29.260Z,18.83
2018-09-05T07:16:58.844Z,18.79
2018-09-05T07:19:28.606Z,18.83
2018-09-05T07:21:58.374Z,18.87
2018-09-05T07:24:28.095Z,18.94
2018-09-05T07:26:57.667Z,19.07
2018-09-05T07:29:27.114Z,19.16
2018-09-05T07:31:56.537Z,19.32
2018-09-05T07:34:26.176Z,19.51
2018-09-05T07:36:55.855Z,19.62
2018-09-05T07:39:25.517Z,19.75
2018-09-05T07:41:55.196Z,19.85
2018-09-05T07:44:25.028Z,19.94
2018-09-05T07:46:54.591Z,19.95
2018-09-05T07:49:24.255Z,20.06
2018-09-05T07:51:54.032Z,20.09
2018-09-05T07:54:23.878Z,20.18
2018-09-05T07:56:53.667Z,20.28
2018-09-05T07:59:23.453Z,20.51
2018-09-05T08:01:53.346Z,20.52
2018-09-05T08:04:23.190Z,20.51
2018-09-05T08:06:52.881Z,20.58
2018-09-05T08:09:22.654Z,20.55
2018-09-05T08:11:52.553Z,20.48
2018-09-05T08:14:22.151Z,20.62
2018-09-05T08:16:51.708Z,20.62
2018-09-05T08:19:21.697Z,20.70
2018-09-05T08:21:51.294Z,20.72
2018-09-05T08:24:21.321Z,20.61
2018-09-05T08:26:50.697Z,20.64
2018-09-05T08:29:20.750Z,20.52
2018-09-05T08:31:51.113Z,20.36
2018-09-05T08:34:20.888Z,20.21
2018-09-05T08:36:50.869Z,20.06
2018-09-05T08:39:20.296Z,20.02
2018-09-05T08:41:49.994Z,20.14
2018-09-05T08:44:19.680Z,20.18
2018-09-05T08:46:49.330Z,20.20
2018-09-05T08:49:18.886Z,20.47
2018-09-05T08:51:48.403Z,21.13
2018-09-05T08:54:18.068Z,22.10
2018-09-05T08:56:47.767Z,22.87
2018-09-05T08:59:17.406Z,23.61
2018-09-05T09:01:47.117Z,23.42
2018-09-05T09:04:17.091Z,23.54
2018-09-05T09:06:46.811Z,24.51
2018-09-05T09:09:16.472Z,25.01
2018-09-05T09:11:46.081Z,24.41
2018-09-05T09:14:15.884Z,24.67
2018-09-05T09:16:45.848Z,24.31
2018-09-05T09:19:15.772Z,24.60
2018-09-05T09:21:45.362Z,24.69
2018-09-05T09:24:15.392Z,24.60
2018-09-05T09:26:45.196Z,24.44
2018-09-05T09:29:15.034Z,24.13
2018-09-05T09:31:44.747Z,23.91
2018-09-05T09:34:14.553Z,24.31
2018-09-05T09:36:44.339Z,24.61
2018-09-05T09:39:14.056Z,24.73
2018-09-05T09:41:43.959Z,25.59
2018-09-05T09:44:14.637Z,26.35
2018-09-05T09:46:45.264Z,25.74
2018-09-05T09:49:14.952Z,25.36
2018-09-05T09:51:44.778Z,25.56
2018-09-05T09:54:14.652Z,26.17
2018-09-05T09:56:44.332Z,25.82
2018-09-05T09:59:14.561Z,25.58
2018-09-05T10:01:49.204Z,25.40
2018-09-05T10:06:26.542Z,26.04
2018-09-05T10:09:01.266Z,26.87
2018-09-05T10:11:35.989Z,26.97
2018-09-05T10:14:10.833Z,26.75
2018-09-05T10:17:45.469Z,26.11
2018-09-05T10:20:15.416Z,27.23
2018-09-05T10:22:45.289Z,27.31
2018-09-05T10:25:15.340Z,26.94
2018-09-05T10:27:45.715Z,26.99
2018-09-05T10:30:15.510Z,25.69
2018-09-05T10:32:45.537Z,25.35
2018-09-05T10:35:15.694Z,25.40
2018-09-05T10:37:45.357Z,25.28
2018-09-05T10:40:15.129Z,25.19
2018-09-05T10:42:44.866Z,25.59
2018-09-05T10:45:14.965Z,25.65
2018-09-05T10:47:45.692Z,25.37
2018-09-05T10:50:15.772Z,26.26
2018-09-05T10:52:45.921Z,26.62
2018-09-05T10:55:15.654Z,27.07
2018-09-05T10:57:45.361Z,26.52
2018-09-05T11:00:15.164Z,25.96
2018-09-05T11:02:44.889Z,25.91
2018-09-05T11:05:14.636Z,25.42
2018-09-05T11:07:44.397Z,25.91
2018-09-05T11:10:14.174Z,26.47
2018-09-05T11:12:44.415Z,26.44
2018-09-05T11:15:14.166Z,26.31
2018-09-05T11:17:43.762Z,26.22
2018-09-05T11:20:14.193Z,26.31
2018-09-05T11:22:43.934Z,27.35
2018-09-05T11:25:13.689Z,27.65
2018-09-05T11:27:43.487Z,27.60
2018-09-05T11:30:13.608Z,27.96
2018-09-05T11:32:43.375Z,27.11
2018-09-05T11:35:13.067Z,27.14
2018-09-05T11:37:42.815Z,27.42
2018-09-05T11:40:12.604Z,27.59
2018-09-05T11:42:42.349Z,27.04
2018-09-05T11:45:12.195Z,27.41
2018-09-05T11:47:41.875Z,27.88
2018-09-05T11:50:11.649Z,28.22
2018-09-05T11:52:41.619Z,28.23
2018-09-05T11:55:11.696Z,26.79
2018-09-05T11:57:41.585Z,26.98
2018-09-05T12:00:11.362Z,27.01
2018-09-05T12:02:41.046Z,27.29
2018-09-05T12:05:10.815Z,27.11
2018-09-05T12:07:40.565Z,27.53
2018-09-05T12:10:10.409Z,27.88
2018-09-05T12:12:40.163Z,27.04
2018-09-05T12:15:09.956Z,26.94
2018-09-05T12:17:39.611Z,26.60
2018-09-05T12:20:09.361Z,26.68
2018-09-05T12:22:39.174Z,27.15
2018-09-05T12:25:09.191Z,27.38
2018-09-05T12:27:38.892Z,27.47
2018-09-05T12:30:08.798Z,27.43
2018-09-05T12:32:38.655Z,27.10
2018-09-05T12:35:10.128Z,27.41
2018-09-05T12:37:39.899Z,27.91
2018-09-05T12:40:09.768Z,27.97
2018-09-05T12:42:39.446Z,28.31
2018-09-05T12:45:09.245Z,28.08
2018-09-05T12:47:38.938Z,28.00
2018-09-05T12:50:08.727Z,27.76
2018-09-05T12:52:38.491Z,27.42
2018-09-05T12:55:08.429Z,27.23
2018-09-05T12:57:38.028Z,26.98
2018-09-05T13:00:08.074Z,27.39
2018-09-05T13:02:38.483Z,27.22
2018-09-05T13:05:08.378Z,27.21
2018-09-05T13:07:37.995Z,27.38
2018-09-05T13:10:09.704Z,27.40
2018-09-05T13:12:40.165Z,26.79
2018-09-05T13:15:09.906Z,27.14
2018-09-05T13:17:39.768Z,27.45
2018-09-05T13:20:09.685Z,27.29
2018-09-05T13:22:40.195Z,27.20
2018-09-05T13:25:10.098Z,27.09
2018-09-05T13:27:39.838Z,27.28
2018-09-05T13:30:10.083Z,27.47
2018-09-05T13:32:39.913Z,28.25
2018-09-05T13:35:10.662Z,29.00
2018-09-05T13:37:40.332Z,27.82
2018-09-05T13:40:10.489Z,28.35
2018-09-05T13:42:40.128Z,28.28
2018-09-05T13:45:09.888Z,28.19
2018-09-05T13:47:39.600Z,28.00
2018-09-05T13:50:09.480Z,27.84
2018-09-05T13:52:40.086Z,28.04
2018-09-05T13:55:10.005Z,27.13
2018-09-05T13:57:39.640Z,27.48
2018-09-05T14:00:13.379Z,27.72
2018-09-05T14:02:43.405Z,27.53
2018-09-05T14:05:13.908Z,27.16
2018-09-05T14:07:44.131Z,27.55
2018-09-05T14:10:16.416Z,27.87
2018-09-05T14:12:47.191Z,28.79
2018-09-05T14:15:17.052Z,28.28
2018-09-05T14:17:46.806Z,28.04
2018-09-05T14:20:16.796Z,27.61
2018-09-05T14:22:46.960Z,27.29
2018-09-05T14:25:16.576Z,27.71
2018-09-05T14:27:46.338Z,27.12
2018-09-05T14:30:16.314Z,27.23
2018-09-05T14:32:46.150Z,27.34
2018-09-05T14:35:15.915Z,27.44
2018-09-05T14:37:46.502Z,27.29
2018-09-05T14:40:17.051Z,27.49
2018-09-05T14:42:47.488Z,27.23
2018-09-05T14:45:17.373Z,27.50
2018-09-05T14:47:47.280Z,27.70
2018-09-05T14:50:16.914Z,27.87
2018-09-05T14:52:46.570Z,27.81
2018-09-05T14:55:16.586Z,28.55
2018-09-05T14:57:46.311Z,29.00
2018-09-05T15:00:16.014Z,29.58
2018-09-05T15:02:45.853Z,30.00
2018-09-05T15:05:16.151Z,29.66
2018-09-05T15:07:48.632Z,28.72
2018-09-05T15:10:19.104Z,28.99
2018-09-05T15:12:48.732Z,28.82
2018-09-05T15:15:18.390Z,28.74
2018-09-05T15:17:48.650Z,28.30
2018-09-05T15:20:19.487Z,28.77
2018-09-05T15:22:49.103Z,28.27
2018-09-05T15:25:19.707Z,27.18
2018-09-05T15:27:49.522Z,26.80
2018-09-05T15:30:19.278Z,27.07
2018-09-05T15:32:49.125Z,27.03
2018-09-05T15:35:18.805Z,26.41
2018-09-05T15:37:48.575Z,26.25
2018-09-05T15:40:19.267Z,25.96
2018-09-05T15:42:49.047Z,25.29
2018-09-05T15:45:19.764Z,24.82
2018-09-05T15:47:49.544Z,24.33
2018-09-05T15:50:20.351Z,23.75
2018-09-05T15:52:51.141Z,23.14
2018-09-05T15:55:22.500Z,22.80
2018-09-05T15:57:52.136Z,22.14
2018-09-05T16:00:23.452Z,21.86
2018-09-05T16:02:53.224Z,21.79
2018-09-05T16:05:22.989Z,21.78
2018-09-05T16:07:52.718Z,22.06
2018-09-05T16:10:22.480Z,21.87
2018-09-05T16:12:52.461Z,21.44
2018-09-05T16:15:22.950Z,21.26
2018-09-05T16:17:52.807Z,21.21
2018-09-05T16:20:22.979Z,20.99
2018-09-05T16:22:52.750Z,20.82
2018-09-05T16:25:23.283Z,20.78
2018-09-05T16:27:54.009Z,20.73
2018-09-05T16:30:24.725Z,21.08
2018-09-05T16:32:55.148Z,21.08
2018-09-05T16:35:25.912Z,21.25
2018-09-05T16:37:57.228Z,21.25
2018-09-05T16:40:26.910Z,21.19
2018-09-05T16:42:57.124Z,21.09
2018-09-05T16:45:26.994Z,20.79
2018-09-05T16:47:58.873Z,20.47
2018-09-05T16:50:29.896Z,20.20
2018-09-05T16:53:00.610Z,19.94
2018-09-05T16:55:30.987Z,19.81
2018-09-05T16:58:00.742Z,19.97
2018-09-05T17:00:31.430Z,20.00
2018-09-05T17:03:01.436Z,19.93
2018-09-05T17:05:31.287Z,19.55
2018-09-05T17:08:02.647Z,19.39
2018-09-05T17:10:32.521Z,19.34
2018-09-05T17:13:03.239Z,19.02
2018-09-05T17:15:33.109Z,18.98
2018-09-05T17:18:03.154Z,18.97
2018-09-05T17:20:32.842Z,18.94
2018-09-05T17:23:04.500Z,18.76
2018-09-05T17:25:34.366Z,18.50
2018-09-05T17:28:04.237Z,18.49
2018-09-05T17:30:38.173Z,18.50
2018-09-05T17:33:08.246Z,18.55
2018-09-05T17:35:38.014Z,18.55
2018-09-05T17:38:07.993Z,18.50
2018-09-05T17:40:37.993Z,18.30
2018-09-05T17:43:08.954Z,18.36
2018-09-05T17:45:38.836Z,18.31
2018-09-05T17:48:08.510Z,18.22
2018-09-05T17:50:38.875Z,18.16
2018-09-05T17:53:08.543Z,18.07
2018-09-05T17:55:38.325Z,18.02
2018-09-05T17:58:09.027Z,17.97
2018-09-05T18:00:42.697Z,18.01
2018-09-05T18:03:12.729Z,17.95
2018-09-05T18:05:42.503Z,17.88
2018-09-05T18:08:13.349Z,17.80
2018-09-05T18:10:43.613Z,17.64
2018-09-05T18:13:13.375Z,17.56
2018-09-05T18:15:44.242Z,17.40
2018-09-05T18:18:13.699Z,17.29
2018-09-05T18:20:47.191Z,17.27
2018-09-05T18:23:17.779Z,17.25
2018-09-05T18:25:50.168Z,17.15
2018-09-05T18:28:20.882Z,16.92
2018-09-05T18:30:50.637Z,16.90
2018-09-05T18:33:23.948Z,16.96
2018-09-05T18:35:53.924Z,16.98
2018-09-05T18:38:25.015Z,16.86
2018-09-05T18:40:56.716Z,16.75
2018-09-05T18:43:26.380Z,16.85
2018-09-05T18:45:57.054Z,16.93
2018-09-05T18:48:26.647Z,17.00
2018-09-05T18:50:59.545Z,17.04
2018-09-05T18:53:52.698Z,17.10
2018-09-05T18:56:24.917Z,17.14
2018-09-05T18:59:00.218Z,17.16
2018-09-05T19:01:31.316Z,17.16
2018-09-05T19:04:02.297Z,17.07
2018-09-05T19:06:38.993Z,17.11
2018-09-05T19:09:15.044Z,17.21
2018-09-05T19:11:50.557Z,17.22
2018-09-05T19:14:21.354Z,17.22
2018-09-05T19:16:53.759Z,17.20
2018-09-05T19:19:25.221Z,17.16
2018-09-05T19:25:06.016Z,17.03
2018-09-05T19:27:37.389Z,16.90
2018-09-05T19:30:09.088Z,16.81
2018-09-05T19:32:39.896Z,16.45
2018-09-05T19:35:10.058Z,16.47
2018-09-05T19:37:41.753Z,16.38
2018-09-05T19:40:12.126Z,16.44
2018-09-05T19:42:41.690Z,16.44
2018-09-05T19:45:12.708Z,16.38
2018-09-05T19:47:44.756Z,16.48
2018-09-05T19:50:16.219Z,16.47
2018-09-05T19:52:46.649Z,16.47
2018-09-05T19:55:17.609Z,16.46
2018-09-05T19:57:48.618Z,16.44
2018-09-05T20:00:29.623Z,16.39
2018-09-05T20:02:59.412Z,16.40
2018-09-05T20:05:32.530Z,16.33
2018-09-05T20:08:02.298Z,16.26
2018-09-05T20:10:33.257Z,16.09
2018-09-05T20:13:04.562Z,15.99
2018-09-05T20:15:35.166Z,16.01
2018-09-05T20:18:11.132Z,15.99
2018-09-05T20:20:40.886Z,15.97
2018-09-05T20:23:11.135Z,15.94
2018-09-05T20:25:40.965Z,15.88
2018-09-05T20:28:12.796Z,15.82
2018-09-05T20:30:42.485Z,15.74
2018-09-05T20:33:18.956Z,15.72
2018-09-05T20:35:48.933Z,15.77
2018-09-05T20:38:19.892Z,15.73
2018-09-05T20:40:50.290Z,15.69
2018-09-05T20:43:22.801Z,15.69
2018-09-05T20:45:54.035Z,15.72
2018-09-05T20:48:23.536Z,15.79
2018-09-05T20:50:54.023Z,15.81
2018-09-05T20:53:24.875Z,15.79
2018-09-05T20:55:54.526Z,15.69
2018-09-05T20:58:26.141Z,15.66
2018-09-05T21:00:57.504Z,15.58
2018-09-05T21:03:28.688Z,15.57
2018-09-05T21:06:02.386Z,15.53
2018-09-05T21:08:33.489Z,15.52
2018-09-05T21:11:03.373Z,15.62
2018-09-05T21:13:34.172Z,15.67
2018-09-05T21:16:06.147Z,15.78
2018-09-05T21:18:36.438Z,15.83
2018-09-05T21:21:08.234Z,15.93
2018-09-05T21:23:37.974Z,15.93
2018-09-05T21:26:07.730Z,15.96
2018-09-05T21:28:37.679Z,15.96
2018-09-05T21:31:07.764Z,15.97
2018-09-05T21:33:37.330Z,16.02
2018-09-05T21:36:07.524Z,15.98
2018-09-05T21:38:37.267Z,16.07
2018-09-05T21:41:08.861Z,16.10
2018-09-05T21:43:38.645Z,16.20
2018-09-05T21:46:08.749Z,16.20
2018-09-05T21:48:38.319Z,16.23
2018-09-05T21:51:08.238Z,16.24
2018-09-05T21:53:37.846Z,16.25
2018-09-05T21:56:08.375Z,16.34
2018-09-05T21:58:37.917Z,16.35
2018-09-05T22:01:08.000Z,16.32
2018-09-05T22:03:37.443Z,16.27
2018-09-05T22:06:07.220Z,16.30
2018-09-05T22:08:36.864Z,16.24
2018-09-05T22:11:11.491Z,16.40
2018-09-05T22:13:41.248Z,16.39
2018-09-05T22:16:10.935Z,16.41
2018-09-05T22:18:40.711Z,16.44
2018-09-05T22:21:10.255Z,16.50
2018-09-05T22:23:39.888Z,16.51
2018-09-05T22:26:09.462Z,16.57
2018-09-05T22:28:39.297Z,16.58
2018-09-05T22:31:08.936Z,16.58
2018-09-05T22:33:38.658Z,16.62
2018-09-05T22:36:08.388Z,16.60
2018-09-05T22:38:38.006Z,16.64
2018-09-05T22:41:07.977Z,16.60
2018-09-05T22:43:48.282Z,16.59
2018-09-05T22:46:28.554Z,16.78
2018-09-05T22:49:11.531Z,16.73
2018-09-05T22:51:55.342Z,16.70
2018-09-05T22:55:16.660Z,16.70
2018-09-05T23:00:30.024Z,16.67
2018-09-05T23:03:18.004Z,16.69
2018-09-05T23:11:56.865Z,16.73
2018-09-05T23:15:35.767Z,16.73
2018-09-05T23:18:27.408Z,16.63
2018-09-05T23:21:28.343Z,16.44
2018-09-05T23:24:01.882Z,16.36
2018-09-05T23:26:31.601Z,16.26
2018-09-05T23:29:01.422Z,16.21
2018-09-05T23:31:31.274Z,16.13
2018-09-05T23:34:01.024Z,15.84
2018-09-05T23:36:30.636Z,15.75
2018-09-05T23:39:00.330Z,15.87
2018-09-05T23:41:30.012Z,15.86
2018-09-05T23:43:59.603Z,15.96
2018-09-05T23:46:29.203Z,15.96
2018-09-05T23:48:58.707Z,16.07
2018-09-05T23:51:28.576Z,16.10
2018-09-05T23:53:58.269Z,16.10
2018-09-05T23:56:28.755Z,16.14
2018-09-05T23:58:58.486Z,16.22
